createdAt,value
2023-01-24T00:00:57.178Z,6.60
2023-01-24T00:03:27.291Z,6.43
2023-01-24T00:05:57.525Z,6.87
2023-01-24T00:08:27.516Z,6.93
2023-01-24T00:11:03.097Z,7.83
2023-01-24T00:13:34.392Z,7.53
2023-01-24T00:16:11.857Z,7.60
2023-01-24T00:18:41.895Z,6.33
2023-01-24T00:21:15.210Z,6.20
2023-01-24T00:23:45.652Z,6.73
2023-01-24T00:26:16.766Z,6.40
2023-01-24T00:28:49.294Z,7.07
2023-01-24T00:31:22.463Z,7.17
2023-01-24T00:33:52.693Z,7.10
2023-01-24T00:36:22.861Z,6.40
2023-01-24T00:38:52.887Z,6.37
2023-01-24T00:41:22.898Z,6.60
2023-01-24T00:43:56.543Z,6.33
2023-01-24T00:46:29.193Z,6.33
2023-01-24T00:49:01.263Z,6.70
2023-01-24T00:51:31.716Z,6.53
2023-01-24T00:54:01.799Z,6.67
2023-01-24T00:56:31.836Z,7.60
2023-01-24T00:59:01.779Z,6.37
2023-01-24T01:01:34.493Z,6.70
2023-01-24T01:04:04.607Z,6.87
2023-01-24T01:06:34.639Z,6.97
2023-01-24T01:09:04.644Z,5.93
2023-01-24T01:11:34.687Z,7.27
2023-01-24T01:14:04.686Z,6.53
2023-01-24T01:16:38.826Z,7.30
2023-01-24T01:19:09.423Z,5.57
2023-01-24T01:21:39.683Z,6.33
2023-01-24T01:24:10.085Z,6.30
2023-01-24T01:26:40.511Z,5.50
2023-01-24T01:29:10.471Z,6.13
2023-01-24T01:31:44.098Z,6.47
2023-01-24T01:34:14.239Z,6.47
2023-01-24T01:36:44.564Z,6.40
2023-01-24T01:39:14.965Z,6.17
2023-01-24T01:41:44.969Z,6.50
2023-01-24T01:44:34.964Z,6.73
2023-01-24T01:47:08.827Z,5.70
2023-01-24T01:49:39.179Z,6.55
2023-01-24T01:52:10.217Z,5.73
2023-01-24T01:54:45.728Z,7.30
2023-01-24T01:57:19.228Z,5.87
2023-01-24T01:59:53.630Z,6.23
2023-01-24T02:04:59.598Z,5.80
2023-01-24T02:07:35.895Z,6.07
2023-01-24T02:10:07.886Z,7.07
2023-01-24T02:12:43.179Z,5.37
2023-01-24T02:15:29.661Z,6.50
2023-01-24T02:18:04.552Z,6.33
2023-01-24T02:20:41.386Z,6.07
2023-01-24T02:23:27.999Z,5.67
2023-01-24T02:26:09.270Z,7.30
2023-01-24T02:28:41.576Z,6.67
2023-01-24T02:31:11.709Z,5.37
2023-01-24T02:33:42.329Z,6.47
2023-01-24T02:36:21.020Z,7.83
2023-01-24T02:38:56.984Z,6.30
2023-01-24T02:41:36.688Z,6.23
2023-01-24T02:44:11.908Z,5.83
2023-01-24T02:46:42.550Z,5.67
2023-01-24T02:49:13.640Z,5.67
2023-01-24T02:51:56.459Z,5.50
2023-01-24T02:54:26.845Z,5.70
2023-01-24T02:57:11.924Z,6.03
2023-01-24T02:59:42.220Z,6.53
2023-01-24T03:02:13.112Z,5.93
2023-01-24T03:04:43.421Z,6.63
2023-01-24T03:07:13.719Z,6.63
2023-01-24T03:09:52.075Z,5.17
2023-01-24T03:12:40.573Z,6.63
2023-01-24T03:15:24.605Z,5.17
2023-01-24T03:18:07.575Z,6.38
2023-01-24T03:20:50.355Z,5.63
2023-01-24T03:23:33.219Z,5.63
2023-01-24T03:26:15.954Z,5.87
2023-01-24T03:29:02.364Z,6.05
2023-01-24T03:31:46.091Z,6.63
2023-01-24T03:34:28.940Z,6.13
2023-01-24T03:36:59.233Z,6.83
2023-01-24T03:39:42.012Z,5.77
2023-01-24T03:42:12.093Z,6.93
2023-01-24T03:44:45.124Z,6.70
2023-01-24T03:47:15.465Z,6.57
2023-01-24T03:49:58.837Z,5.40
2023-01-24T03:52:30.330Z,5.73
2023-01-24T03:55:09.240Z,6.47
2023-01-24T03:57:39.969Z,5.47
2023-01-24T04:00:15.907Z,5.80
2023-01-24T04:02:49.055Z,5.57
2023-01-24T04:05:24.044Z,5.07
2023-01-24T04:07:54.284Z,4.90
2023-01-24T04:10:24.997Z,4.93
2023-01-24T04:12:55.030Z,4.53
2023-01-24T04:15:29.986Z,4.67
2023-01-24T04:18:19.402Z,4.47
2023-01-24T04:20:50.054Z,4.53
2023-01-24T04:23:20.039Z,3.70
2023-01-24T04:25:55.901Z,4.50
2023-01-24T04:28:26.691Z,3.67
2023-01-24T04:31:04.164Z,4.27
2023-01-24T04:34:00.883Z,3.97
2023-01-24T04:36:33.095Z,3.93
2023-01-24T04:39:04.619Z,4.17
2023-01-24T04:41:40.968Z,3.67
2023-01-24T04:44:11.081Z,3.53
2023-01-24T04:46:44.460Z,3.50
2023-01-24T04:49:15.024Z,3.57
2023-01-24T04:51:48.236Z,3.17
2023-01-24T04:54:24.004Z,4.10
2023-01-24T04:56:54.635Z,4.57
2023-01-24T04:59:24.628Z,3.47
2023-01-24T05:01:57.646Z,4.13
2023-01-24T05:04:36.826Z,4.50
2023-01-24T05:07:07.873Z,4.00
2023-01-24T05:09:39.321Z,3.43
2023-01-24T05:12:12.662Z,4.47
2023-01-24T05:14:42.895Z,2.70
2023-01-24T05:17:16.138Z,3.93
2023-01-24T05:19:46.666Z,3.27
2023-01-24T05:22:17.905Z,4.00
2023-01-24T05:24:48.025Z,3.20
2023-01-24T05:27:19.197Z,3.20
2023-01-24T05:29:57.439Z,3.37
2023-01-24T05:32:30.912Z,3.33
2023-01-24T05:35:01.037Z,3.15
2023-01-24T05:37:31.330Z,3.07
2023-01-24T05:40:02.051Z,2.83
2023-01-24T05:42:32.163Z,3.30
2023-01-24T05:45:02.396Z,3.27
2023-01-24T05:47:35.543Z,3.47
2023-01-24T05:50:05.645Z,2.80
2023-01-24T05:52:35.676Z,3.33
2023-01-24T05:55:05.921Z,2.97
2023-01-24T05:57:41.545Z,3.10
2023-01-24T06:00:21.633Z,3.40
2023-01-24T06:03:20.455Z,3.40
2023-01-24T06:05:51.376Z,3.80
2023-01-24T06:08:22.595Z,2.80
2023-01-24T06:10:53.265Z,2.87
2023-01-24T06:13:26.113Z,3.57
2023-01-24T06:16:03.417Z,2.90
2023-01-24T06:18:37.589Z,3.63
2023-01-24T06:21:19.354Z,3.20
2023-01-24T06:23:50.079Z,3.73
2023-01-24T06:26:21.063Z,3.13
2023-01-24T06:28:51.753Z,3.23
2023-01-24T06:31:35.118Z,2.87
2023-01-24T06:34:19.256Z,3.43
2023-01-24T06:37:01.684Z,2.70
2023-01-24T06:39:32.448Z,2.90
2023-01-24T06:42:03.054Z,2.67
2023-01-24T06:44:33.613Z,3.00
2023-01-24T06:47:03.574Z,3.17
2023-01-24T06:49:36.151Z,2.70
2023-01-24T06:52:06.565Z,2.60
2023-01-24T06:54:37.936Z,3.33
2023-01-24T06:57:07.883Z,3.03
2023-01-24T06:59:37.869Z,3.20
2023-01-24T07:02:08.349Z,2.43
2023-01-24T07:04:41.002Z,3.00
2023-01-24T07:07:10.982Z,2.43
2023-01-24T07:09:42.023Z,2.87
2023-01-24T07:12:11.998Z,2.90
2023-01-24T07:14:42.519Z,3.10
2023-01-24T07:17:13.119Z,2.97
2023-01-24T07:19:46.306Z,3.00
2023-01-24T07:22:17.388Z,3.13
2023-01-24T07:24:48.017Z,2.87
2023-01-24T07:27:18.871Z,2.73
2023-01-24T07:29:49.307Z,2.87
2023-01-24T07:32:19.539Z,2.53
2023-01-24T07:34:52.217Z,2.60
2023-01-24T07:37:24.213Z,3.17
2023-01-24T07:39:54.201Z,3.27
2023-01-24T07:42:24.451Z,2.70
2023-01-24T07:44:54.983Z,3.53
2023-01-24T07:47:25.381Z,2.90
2023-01-24T07:49:58.077Z,3.13
2023-01-24T07:52:28.423Z,2.47
2023-01-24T07:54:58.397Z,3.10
2023-01-24T07:57:28.641Z,2.47
2023-01-24T07:59:58.985Z,3.00
2023-01-24T08:02:28.981Z,3.10
2023-01-24T08:05:01.716Z,3.53
2023-01-24T08:07:31.659Z,3.60
2023-01-24T08:10:01.660Z,3.50
2023-01-24T08:12:31.672Z,3.07
2023-01-24T08:15:02.130Z,3.73
2023-01-24T08:17:32.112Z,3.07
2023-01-24T08:20:04.793Z,3.17
2023-01-24T08:22:37.547Z,3.37
2023-01-24T08:25:09.681Z,3.72
2023-01-24T08:27:44.411Z,4.03
2023-01-24T08:30:16.934Z,4.90
2023-01-24T08:32:47.040Z,3.07
2023-01-24T08:35:19.828Z,3.00
2023-01-24T08:37:50.091Z,3.53
2023-01-24T08:40:21.246Z,3.47
2023-01-24T08:42:51.561Z,4.07
2023-01-24T08:45:22.037Z,4.13
2023-01-24T08:47:55.390Z,3.80
2023-01-24T08:50:28.088Z,4.03
2023-01-24T08:52:59.172Z,4.00
2023-01-24T08:55:29.292Z,3.90
2023-01-24T08:58:03.413Z,3.17
2023-01-24T09:00:33.880Z,3.78
2023-01-24T09:03:04.570Z,4.07
2023-01-24T09:05:37.821Z,4.67
2023-01-24T09:08:08.522Z,4.07
2023-01-24T09:10:40.598Z,4.13
2023-01-24T09:13:11.358Z,3.83
2023-01-24T09:15:41.615Z,3.77
2023-01-24T09:18:11.906Z,4.10
2023-01-24T09:20:44.451Z,3.65
2023-01-24T09:23:15.661Z,3.47
2023-01-24T09:25:52.650Z,4.20
2023-01-24T09:28:23.480Z,3.90
2023-01-24T09:30:54.439Z,3.15
2023-01-24T09:33:24.827Z,3.80
2023-01-24T09:35:59.330Z,4.20
2023-01-24T09:41:01.783Z,5.88
2023-01-24T09:43:41.651Z,4.70
2023-01-24T09:46:20.734Z,6.93
2023-01-24T09:48:52.060Z,10.23
2023-01-24T09:51:27.624Z,6.70
2023-01-24T09:53:59.558Z,5.20
2023-01-24T09:56:34.426Z,5.75
2023-01-24T09:59:14.047Z,4.47
2023-01-24T10:01:44.359Z,9.73
2023-01-24T10:04:21.816Z,4.72
2023-01-24T10:07:19.606Z,4.38
2023-01-24T10:10:02.628Z,4.05
2023-01-24T10:12:46.640Z,4.25
2023-01-24T10:15:30.687Z,3.28
2023-01-24T10:18:15.160Z,3.83
2023-01-24T10:21:10.318Z,4.20
2023-01-24T10:26:19.939Z,3.50
2023-01-24T10:28:51.911Z,4.43
2023-01-24T10:31:24.559Z,3.83
2023-01-24T10:33:56.309Z,4.05
2023-01-24T10:36:34.056Z,3.75
2023-01-24T10:39:04.284Z,4.07
2023-01-24T10:41:37.159Z,3.63
2023-01-24T10:44:10.051Z,3.57
2023-01-24T10:46:55.176Z,4.00
2023-01-24T10:49:27.798Z,4.27
2023-01-24T10:52:14.388Z,3.80
2023-01-24T10:54:50.408Z,4.73
2023-01-24T10:57:30.453Z,4.60
2023-01-24T11:00:06.894Z,4.63
2023-01-24T11:02:37.882Z,4.15
2023-01-24T11:05:09.638Z,4.10
2023-01-24T11:07:42.147Z,4.60
2023-01-24T11:10:22.612Z,4.25
2023-01-24T11:12:58.071Z,3.72
2023-01-24T11:15:30.668Z,3.90
2023-01-24T11:18:03.072Z,3.72
2023-01-24T11:20:34.601Z,4.10
2023-01-24T11:23:14.885Z,4.70
2023-01-24T11:25:55.763Z,3.92
2023-01-24T11:28:33.217Z,4.07
2023-01-24T11:31:04.904Z,4.07
2023-01-24T11:33:42.565Z,5.00
2023-01-24T11:36:30.605Z,4.57
2023-01-24T11:39:03.721Z,4.10
2023-01-24T11:41:37.090Z,3.80
2023-01-24T11:44:37.672Z,4.40
2023-01-24T11:47:12.001Z,4.97
2023-01-24T11:49:50.883Z,4.65
2023-01-24T11:52:41.468Z,4.20
2023-01-24T11:55:17.405Z,4.37
2023-01-24T11:57:52.657Z,5.50
2023-01-24T12:00:28.831Z,5.07
2023-01-24T12:03:26.738Z,4.45
2023-01-24T12:06:04.141Z,4.97
2023-01-24T12:08:41.347Z,6.22
2023-01-24T12:11:33.518Z,4.90
2023-01-24T12:14:24.861Z,3.97
2023-01-24T12:17:09.155Z,4.15
2023-01-24T12:19:54.104Z,4.22
2023-01-24T12:22:25.520Z,4.70
2023-01-24T12:24:57.519Z,4.63
2023-01-24T12:27:29.374Z,5.32
2023-01-24T12:30:03.235Z,4.93
2023-01-24T12:32:39.477Z,4.50
2023-01-24T12:35:15.407Z,4.30
2023-01-24T12:37:49.961Z,5.75
2023-01-24T12:40:24.331Z,5.47
2023-01-24T12:43:01.585Z,5.47
2023-01-24T12:45:35.512Z,5.73
2023-01-24T12:48:17.500Z,6.05
2023-01-24T12:50:55.126Z,5.97
2023-01-24T12:53:31.013Z,5.55
2023-01-24T12:56:03.870Z,5.60
2023-01-24T12:58:38.203Z,6.90
2023-01-24T13:01:34.528Z,7.47
2023-01-24T13:04:15.383Z,5.70
2023-01-24T13:06:53.636Z,6.40
2023-01-24T13:09:26.181Z,5.83
2023-01-24T13:11:58.216Z,5.47
2023-01-24T13:14:32.117Z,5.03
2023-01-24T13:17:08.219Z,5.80
2023-01-24T13:19:50.355Z,6.10
2023-01-24T13:22:36.168Z,6.32
2023-01-24T13:25:22.744Z,5.93
2023-01-24T13:27:56.008Z,6.85
2023-01-24T13:30:31.551Z,6.40
2023-01-24T13:33:07.053Z,6.82
2023-01-24T13:35:39.875Z,5.38
2023-01-24T13:38:20.263Z,6.05
2023-01-24T13:41:10.527Z,5.38
2023-01-24T13:44:02.902Z,8.93
2023-01-24T13:46:48.433Z,6.72
2023-01-24T13:49:21.481Z,6.63
2023-01-24T13:51:54.615Z,6.15
2023-01-24T13:54:41.419Z,6.63
2023-01-24T13:57:30.186Z,5.50
2023-01-24T14:00:27.852Z,5.80
2023-01-24T14:03:17.033Z,5.75
2023-01-24T14:05:50.991Z,5.20
2023-01-24T14:08:36.685Z,5.50
2023-01-24T14:11:28.392Z,5.67
2023-01-24T14:14:38.636Z,4.55
2023-01-24T14:17:53.048Z,4.75
2023-01-24T14:20:27.536Z,5.20
2023-01-24T14:23:01.440Z,4.70
2023-01-24T14:25:43.028Z,5.10
2023-01-24T14:28:24.540Z,5.20
2023-01-24T14:30:59.620Z,5.78
2023-01-24T14:33:46.908Z,5.10
2023-01-24T14:36:35.034Z,4.90
2023-01-24T14:39:15.110Z,5.25
2023-01-24T14:41:45.799Z,5.35
2023-01-24T14:44:20.621Z,4.97
2023-01-24T14:47:02.179Z,5.65
2023-01-24T14:49:34.342Z,5.00
2023-01-24T14:52:17.525Z,5.85
2023-01-24T14:54:51.605Z,5.78
2023-01-24T14:57:23.280Z,5.20
2023-01-24T15:00:03.256Z,5.33
2023-01-24T15:02:36.885Z,5.27
2023-01-24T15:05:25.475Z,7.00
2023-01-24T15:07:55.766Z,5.40
2023-01-24T15:10:27.014Z,6.17
2023-01-24T15:12:58.969Z,7.03
2023-01-24T15:15:29.639Z,6.73
2023-01-24T15:18:05.765Z,6.10
2023-01-24T15:20:35.997Z,5.60
2023-01-24T15:23:10.719Z,5.37
2023-01-24T15:25:43.421Z,5.47
2023-01-24T15:28:14.869Z,4.90
2023-01-24T15:30:54.760Z,5.40
2023-01-24T15:33:30.884Z,5.53
2023-01-24T15:36:01.197Z,5.27
2023-01-24T15:38:33.823Z,5.60
2023-01-24T15:41:06.062Z,5.67
2023-01-24T15:43:49.326Z,5.60
2023-01-24T15:46:33.916Z,6.00
2023-01-24T15:49:07.896Z,5.90
2023-01-24T15:51:40.334Z,6.88
2023-01-24T15:54:13.920Z,6.07
2023-01-24T15:56:52.475Z,6.78
2023-01-24T15:59:24.032Z,6.40
2023-01-24T16:01:54.292Z,5.93
2023-01-24T16:04:27.223Z,6.53
2023-01-24T16:06:57.544Z,6.60
2023-01-24T16:09:28.048Z,7.40
2023-01-24T16:11:58.284Z,7.20
2023-01-24T16:14:30.200Z,7.07
2023-01-24T16:17:04.475Z,7.10
2023-01-24T16:19:37.336Z,8.10
2023-01-24T16:22:07.561Z,9.17
2023-01-24T16:24:37.768Z,6.32
2023-01-24T16:27:08.286Z,8.60
2023-01-24T16:29:38.543Z,10.57
2023-01-24T16:32:15.189Z,7.23
2023-01-24T16:34:47.992Z,10.90
2023-01-24T16:37:21.927Z,10.83
2023-01-24T16:42:23.190Z,10.93
2023-01-24T16:44:58.174Z,6.32
2023-01-24T16:47:28.764Z,14.90
2023-01-24T16:50:02.131Z,15.00
2023-01-24T16:52:32.528Z,17.52
2023-01-24T16:55:02.776Z,20.87
2023-01-24T16:57:33.259Z,15.53
2023-01-24T17:00:03.975Z,7.40
2023-01-24T17:02:34.536Z,7.93
2023-01-24T17:05:07.545Z,6.73
2023-01-24T17:07:37.814Z,6.00
2023-01-24T17:10:08.430Z,7.67
2023-01-24T17:12:38.657Z,7.33
2023-01-24T17:15:09.551Z,7.67
2023-01-24T17:17:39.818Z,8.23
2023-01-24T17:20:13.932Z,7.63
2023-01-24T17:22:44.617Z,9.13
2023-01-24T17:25:14.941Z,8.20
2023-01-24T17:27:45.697Z,8.63
2023-01-24T17:30:16.568Z,8.53
2023-01-24T17:32:47.206Z,6.70
2023-01-24T17:35:20.251Z,7.27
2023-01-24T17:37:50.680Z,7.20
2023-01-24T17:40:21.301Z,8.80
2023-01-24T17:42:51.633Z,7.43
2023-01-24T17:45:21.924Z,9.27
2023-01-24T17:47:53.453Z,9.37
2023-01-24T17:50:26.433Z,7.37
2023-01-24T17:52:56.825Z,8.67
2023-01-24T17:55:27.106Z,7.10
2023-01-24T17:57:59.088Z,7.93
2023-01-24T18:00:30.540Z,8.13
2023-01-24T18:03:00.863Z,8.13
2023-01-24T18:05:33.725Z,8.10
2023-01-24T18:08:04.177Z,8.93
2023-01-24T18:10:34.534Z,10.53
2023-01-24T18:13:04.961Z,7.73
2023-01-24T18:15:35.416Z,8.50
2023-01-24T18:18:05.952Z,8.43
2023-01-24T18:20:38.879Z,7.40
2023-01-24T18:23:09.300Z,10.43
2023-01-24T18:25:39.863Z,7.67
2023-01-24T18:28:10.202Z,8.93
2023-01-24T18:30:41.875Z,7.70
2023-01-24T18:33:12.269Z,8.00
2023-01-24T18:35:46.328Z,9.03
2023-01-24T18:38:16.728Z,8.82
2023-01-24T18:40:47.235Z,7.90
2023-01-24T18:43:19.566Z,8.50
2023-01-24T18:45:49.855Z,7.80
2023-01-24T18:48:20.303Z,8.67
2023-01-24T18:50:53.432Z,8.13
2023-01-24T18:53:23.731Z,7.73
2023-01-24T18:56:00.966Z,7.90
2023-01-24T18:58:31.211Z,8.20
2023-01-24T19:01:01.753Z,7.30
2023-01-24T19:03:32.206Z,8.00
2023-01-24T19:06:05.151Z,8.40
2023-01-24T19:08:35.436Z,9.47
2023-01-24T19:11:13.091Z,8.53
2023-01-24T19:13:43.481Z,8.47
2023-01-24T19:16:13.804Z,9.87
2023-01-24T19:18:44.070Z,7.13
2023-01-24T19:21:18.272Z,9.07
2023-01-24T19:23:49.698Z,7.40
2023-01-24T19:26:21.070Z,8.03
2023-01-24T19:28:56.603Z,7.90
2023-01-24T19:31:27.038Z,8.13
2023-01-24T19:33:58.060Z,7.93
2023-01-24T19:36:30.990Z,8.30
2023-01-24T19:39:02.289Z,9.03
2023-01-24T19:41:32.814Z,7.83
2023-01-24T19:44:19.038Z,7.47
2023-01-24T19:46:50.784Z,7.97
2023-01-24T19:49:21.382Z,7.97
2023-01-24T19:51:54.479Z,8.40
2023-01-24T19:54:24.812Z,9.80
2023-01-24T19:56:55.587Z,9.70
2023-01-24T19:59:25.907Z,9.03
2023-01-24T20:01:57.115Z,9.83
2023-01-24T20:04:28.491Z,8.67
2023-01-24T20:07:04.156Z,10.53
2023-01-24T20:09:35.087Z,7.43
2023-01-24T20:12:05.432Z,9.30
2023-01-24T20:14:35.893Z,9.90
2023-01-24T20:17:06.251Z,9.73
2023-01-24T20:19:36.658Z,9.57
2023-01-24T20:22:09.634Z,10.53
2023-01-24T20:24:39.845Z,10.20
2023-01-24T20:27:10.125Z,9.60
2023-01-24T20:29:40.438Z,8.07
2023-01-24T20:32:12.607Z,10.18
2023-01-24T20:34:46.776Z,9.50
2023-01-24T20:37:19.699Z,10.50
2023-01-24T20:39:49.998Z,9.07
2023-01-24T20:42:20.503Z,10.07
2023-01-24T20:44:50.785Z,10.27
2023-01-24T20:47:21.267Z,10.67
2023-01-24T20:49:51.663Z,10.43
2023-01-24T20:52:24.624Z,10.17
2023-01-24T20:54:55.120Z,9.80
2023-01-24T20:57:26.181Z,9.70
2023-01-24T20:59:56.563Z,10.00
2023-01-24T21:02:27.894Z,9.87
2023-01-24T21:04:58.735Z,9.47
2023-01-24T21:07:31.611Z,9.60
2023-01-24T21:10:01.902Z,9.87
2023-01-24T21:12:33.325Z,10.10
2023-01-24T21:15:05.927Z,8.90
2023-01-24T21:17:36.564Z,9.43
2023-01-24T21:20:07.353Z,9.17
2023-01-24T21:22:40.142Z,8.77
2023-01-24T21:25:11.151Z,9.23
2023-01-24T21:27:41.516Z,10.17
2023-01-24T21:30:12.651Z,9.88
2023-01-24T21:32:42.983Z,9.27
2023-01-24T21:35:13.428Z,7.87
2023-01-24T21:37:46.486Z,8.53
2023-01-24T21:40:17.246Z,8.37
2023-01-24T21:42:47.475Z,8.87
2023-01-24T21:45:17.991Z,9.17
2023-01-24T21:47:48.691Z,7.77
2023-01-24T21:50:19.470Z,9.47
2023-01-24T21:52:55.324Z,10.47
2023-01-24T21:55:25.545Z,9.63
2023-01-24T21:58:02.251Z,8.80
2023-01-24T22:00:32.551Z,8.70
2023-01-24T22:03:15.133Z,7.97
2023-01-24T22:05:45.513Z,9.30
2023-01-24T22:08:18.143Z,9.03
2023-01-24T22:10:48.403Z,8.37
2023-01-24T22:13:18.635Z,8.97
2023-01-24T22:15:49.144Z,8.97
2023-01-24T22:18:19.786Z,9.37
2023-01-24T22:20:54.318Z,9.20
2023-01-24T22:26:06.628Z,10.00
2023-01-24T22:28:37.346Z,10.47
2023-01-24T22:31:08.263Z,10.03
2023-01-24T22:33:38.955Z,9.47
2023-01-24T22:36:11.506Z,12.33
2023-01-24T22:38:44.249Z,11.23
2023-01-24T22:41:14.454Z,11.57
2023-01-24T22:43:44.713Z,10.87
2023-01-24T22:46:14.967Z,10.67
2023-01-24T22:48:45.183Z,10.70
2023-01-24T22:51:15.432Z,11.70
2023-01-24T22:53:47.964Z,11.83
2023-01-24T22:56:18.176Z,10.60
2023-01-24T22:58:48.415Z,12.43
2023-01-24T23:01:18.643Z,10.23
2023-01-24T23:03:48.839Z,11.90
2023-01-24T23:06:19.082Z,12.03
2023-01-24T23:08:51.837Z,12.37
2023-01-24T23:11:23.032Z,11.20
2023-01-24T23:14:05.757Z,10.67
2023-01-24T23:16:50.189Z,10.70
2023-01-24T23:19:48.459Z,11.43
2023-01-24T23:22:20.047Z,10.53
2023-01-24T23:24:53.658Z,10.17
2023-01-24T23:27:25.340Z,10.30
2023-01-24T23:30:09.912Z,9.73
2023-01-24T23:32:44.238Z,10.10
2023-01-24T23:35:15.680Z,10.60
2023-01-24T23:37:46.136Z,11.07
2023-01-24T23:40:20.643Z,10.23
2023-01-24T23:42:50.860Z,10.83
2023-01-24T23:45:22.609Z,11.60
2023-01-24T23:47:52.853Z,11.37
2023-01-24T23:50:23.082Z,11.87
2023-01-24T23:52:53.252Z,11.00
2023-01-24T23:55:25.819Z,10.70
2023-01-24T23:57:56.010Z,12.57
